createdAt,value
2018-03-29T00:00:12.961Z,57.30
2018-03-29T00:02:40.466Z,57.20
2018-03-29T00:05:08.715Z,57.20
2018-03-29T00:07:36.314Z,57.10
2018-03-29T00:10:03.816Z,57.20
2018-03-29T00:12:31.303Z,57.20
2018-03-29T00:14:58.807Z,57.20
2018-03-29T00:17:26.430Z,57.30
2018-03-29T00:19:54.779Z,57.40
2018-03-29T00:22:22.399Z,57.40
2018-03-29T00:24:50.799Z,57.20
2018-03-29T00:27:19.174Z,57.20
2018-03-29T00:29:46.812Z,57.20
2018-03-29T00:32:14.358Z,57.30
2018-03-29T00:34:41.937Z,57.20
2018-03-29T00:37:09.507Z,57.20
2018-03-29T00:39:37.035Z,57.20
2018-03-29T00:42:05.267Z,57.20
2018-03-29T00:44:32.749Z,57.20
2018-03-29T00:47:00.295Z,57.20
2018-03-29T00:49:27.781Z,57.20
2018-03-29T00:51:55.290Z,57.20
2018-03-29T00:54:22.806Z,57.10
2018-03-29T00:56:50.284Z,57.10
2018-03-29T00:59:17.770Z,57.10
2018-03-29T01:01:45.250Z,57.20
2018-03-29T01:04:12.752Z,57.10
2018-03-29T01:06:41.009Z,56.90
2018-03-29T01:09:08.538Z,56.90
2018-03-29T01:11:36.775Z,57.00
2018-03-29T01:14:04.262Z,56.90
2018-03-29T01:16:31.783Z,57.00
2018-03-29T01:18:59.270Z,57.00
2018-03-29T01:21:26.741Z,57.00
2018-03-29T01:23:54.246Z,57.00
2018-03-29T01:26:21.747Z,57.10
2018-03-29T01:28:50.007Z,57.30
2018-03-29T01:31:17.492Z,57.20
2018-03-29T01:33:45.758Z,57.20
2018-03-29T01:36:13.321Z,57.10
2018-03-29T01:38:40.799Z,57.20
2018-03-29T01:41:08.306Z,57.20
2018-03-29T01:43:36.546Z,57.30
2018-03-29T01:46:04.038Z,57.30
2018-03-29T01:48:32.270Z,57.20
2018-03-29T01:50:59.763Z,57.20
2018-03-29T01:53:27.317Z,57.30
2018-03-29T01:55:54.832Z,57.30
2018-03-29T01:58:22.333Z,57.30
2018-03-29T02:00:49.822Z,57.30
2018-03-29T02:03:17.303Z,57.20
2018-03-29T02:05:44.855Z,57.20
2018-03-29T02:08:12.361Z,57.30
2018-03-29T02:10:39.885Z,57.20
2018-03-29T02:13:07.363Z,57.30
2018-03-29T02:15:34.863Z,57.30
2018-03-29T02:18:02.353Z,57.40
2018-03-29T02:20:29.850Z,57.40
2018-03-29T02:22:57.334Z,57.40
2018-03-29T02:25:25.615Z,57.40
2018-03-29T02:27:53.896Z,57.40
2018-03-29T02:30:21.400Z,57.30
2018-03-29T02:32:48.888Z,57.30
2018-03-29T02:35:16.391Z,57.40
2018-03-29T02:37:43.883Z,57.40
2018-03-29T02:40:12.141Z,57.50
2018-03-29T02:42:39.636Z,57.40
2018-03-29T02:45:07.103Z,57.40
2018-03-29T02:47:34.598Z,57.40
2018-03-29T02:50:02.847Z,57.40
2018-03-29T02:52:30.332Z,57.40
2018-03-29T02:54:57.813Z,57.40
2018-03-29T02:57:26.101Z,57.50
2018-03-29T02:59:53.609Z,57.40
2018-03-29T03:02:21.094Z,57.50
2018-03-29T03:04:48.586Z,57.60
2018-03-29T03:07:16.080Z,57.60
2018-03-29T03:09:45.147Z,57.40
2018-03-29T03:12:12.656Z,57.40
2018-03-29T03:14:40.906Z,57.40
2018-03-29T03:17:08.401Z,57.40
2018-03-29T03:19:35.922Z,57.40
2018-03-29T03:22:03.431Z,57.40
2018-03-29T03:24:30.934Z,57.30
2018-03-29T03:26:59.210Z,57.50
2018-03-29T03:29:26.695Z,57.50
2018-03-29T03:31:54.944Z,57.40
2018-03-29T03:34:22.420Z,57.50
2018-03-29T03:36:49.918Z,57.30
2018-03-29T03:39:18.169Z,57.80
2018-03-29T03:41:45.695Z,57.50
2018-03-29T03:44:13.951Z,57.30
2018-03-29T03:46:41.515Z,57.40
2018-03-29T03:49:09.015Z,57.40
2018-03-29T03:51:37.343Z,57.40
2018-03-29T03:54:04.828Z,57.30
2018-03-29T03:56:32.298Z,57.30
2018-03-29T03:58:59.790Z,57.30
2018-03-29T04:01:27.314Z,57.40
2018-03-29T04:03:54.802Z,57.40
2018-03-29T04:06:22.270Z,57.40
2018-03-29T04:08:50.530Z,57.40
2018-03-29T04:11:18.003Z,57.40
2018-03-29T04:13:45.494Z,57.40
2018-03-29T04:16:12.970Z,57.40
2018-03-29T04:18:40.455Z,57.40
2018-03-29T04:21:07.954Z,57.30
2018-03-29T04:23:35.452Z,57.30
2018-03-29T04:26:02.955Z,57.40
2018-03-29T04:28:30.472Z,57.40
2018-03-29T04:30:58.724Z,57.50
2018-03-29T04:33:26.202Z,57.50
2018-03-29T04:35:53.700Z,57.40
2018-03-29T04:38:21.241Z,57.40
2018-03-29T04:40:48.775Z,57.40
2018-03-29T04:43:16.282Z,57.40
2018-03-29T04:45:43.811Z,57.40
2018-03-29T04:48:11.340Z,57.40
2018-03-29T04:50:38.854Z,57.40
2018-03-29T04:53:06.339Z,57.40
2018-03-29T04:55:33.887Z,57.40
2018-03-29T04:58:01.326Z,57.40
2018-03-29T05:00:28.839Z,57.30
2018-03-29T05:02:56.372Z,57.40
2018-03-29T05:05:23.885Z,57.30
2018-03-29T05:07:51.404Z,57.30
2018-03-29T05:10:18.897Z,57.30
2018-03-29T05:12:46.473Z,57.40
2018-03-29T05:15:14.727Z,57.30
2018-03-29T05:17:42.239Z,57.20
2018-03-29T05:20:09.747Z,57.30
2018-03-29T05:22:37.221Z,57.30
2018-03-29T05:25:04.755Z,57.20
2018-03-29T05:27:32.317Z,57.10
2018-03-29T05:30:00.574Z,57.30
2018-03-29T05:32:28.068Z,57.20
2018-03-29T05:34:56.331Z,57.30
2018-03-29T05:37:23.798Z,57.30
2018-03-29T05:39:51.359Z,57.00
2018-03-29T05:42:18.866Z,57.10
2018-03-29T05:44:46.373Z,57.10
2018-03-29T05:47:14.615Z,57.00
2018-03-29T05:49:42.893Z,57.00
2018-03-29T05:52:10.384Z,56.90
2018-03-29T05:54:37.887Z,57.00
2018-03-29T05:57:05.407Z,57.00
2018-03-29T05:59:32.895Z,56.90
2018-03-29T06:02:00.378Z,56.90
2018-03-29T06:04:28.641Z,56.80
2018-03-29T06:06:56.135Z,56.70
2018-03-29T06:09:24.372Z,56.80
2018-03-29T06:11:51.878Z,56.70
2018-03-29T06:14:19.370Z,56.70
2018-03-29T06:16:46.860Z,56.60
2018-03-29T06:19:14.379Z,56.40
2018-03-29T06:21:42.667Z,56.40
2018-03-29T06:24:10.142Z,56.40
2018-03-29T06:26:37.631Z,56.20
2018-03-29T06:29:05.890Z,56.20
2018-03-29T06:31:33.413Z,56.10
2018-03-29T06:34:00.914Z,56.10
2018-03-29T06:36:28.476Z,56.00
2018-03-29T06:38:55.978Z,56.00
2018-03-29T06:41:23.467Z,56.10
2018-03-29T06:43:51.714Z,56.10
2018-03-29T06:46:19.239Z,56.10
2018-03-29T06:48:46.788Z,55.90
2018-03-29T06:51:14.299Z,55.70
2018-03-29T06:53:41.834Z,55.80
2018-03-29T06:56:10.092Z,55.90
2018-03-29T06:58:37.587Z,55.70
2018-03-29T07:01:05.082Z,55.60
2018-03-29T07:03:33.355Z,55.50
2018-03-29T07:06:00.847Z,55.40
2018-03-29T07:08:28.411Z,55.30
2018-03-29T07:10:55.969Z,55.30
2018-03-29T07:13:24.252Z,55.10
2018-03-29T07:15:52.519Z,55.10
2018-03-29T07:18:20.013Z,55.00
2018-03-29T07:20:47.510Z,54.80
2018-03-29T07:23:15.019Z,54.50
2018-03-29T07:25:42.514Z,54.70
2018-03-29T07:28:10.017Z,54.70
2018-03-29T07:30:37.557Z,54.40
2018-03-29T07:33:04.994Z,54.20
2018-03-29T07:35:32.469Z,54.20
2018-03-29T07:37:59.963Z,54.10
2018-03-29T07:40:27.450Z,54.10
2018-03-29T07:42:55.699Z,54.50
2018-03-29T07:45:23.191Z,54.20
2018-03-29T07:47:50.678Z,54.10
2018-03-29T07:50:18.956Z,54.10
2018-03-29T07:52:46.465Z,54.00
2018-03-29T07:55:13.963Z,53.90
2018-03-29T07:57:41.452Z,53.60
2018-03-29T08:00:08.971Z,53.60
2018-03-29T08:02:37.218Z,53.30
2018-03-29T08:05:04.695Z,53.30
2018-03-29T08:07:32.200Z,53.50
2018-03-29T08:10:00.447Z,54.00
2018-03-29T08:12:27.960Z,53.90
2018-03-29T08:14:56.213Z,54.60
2018-03-29T08:17:23.695Z,54.50
2018-03-29T08:19:51.186Z,54.50
2018-03-29T08:22:18.692Z,54.80
2018-03-29T08:24:46.200Z,54.80
2018-03-29T08:27:13.677Z,55.00
2018-03-29T08:29:41.165Z,55.10
2018-03-29T08:32:09.403Z,55.10
2018-03-29T08:34:36.903Z,55.00
2018-03-29T08:37:05.176Z,54.50
2018-03-29T08:39:32.691Z,54.40
2018-03-29T08:42:00.199Z,54.30
2018-03-29T08:44:28.490Z,53.80
2018-03-29T08:46:56.010Z,53.80
2018-03-29T08:49:24.279Z,53.90
2018-03-29T08:51:51.775Z,53.80
2018-03-29T08:54:23.998Z,54.10
2018-03-29T08:56:51.487Z,54.00
2018-03-29T08:59:19.001Z,54.10
2018-03-29T09:01:46.497Z,54.20
2018-03-29T09:04:13.983Z,54.00
2018-03-29T09:06:41.528Z,53.30
2018-03-29T09:09:09.029Z,52.80
2018-03-29T09:11:36.556Z,52.40
2018-03-29T09:14:04.818Z,52.20
2018-03-29T09:16:32.308Z,52.20
2018-03-29T09:19:00.663Z,52.00
2018-03-29T09:21:33.992Z,52.00
2018-03-29T09:24:02.247Z,52.70
2018-03-29T09:26:30.570Z,52.50
2018-03-29T09:28:58.086Z,52.50
2018-03-29T09:31:25.569Z,52.70
2018-03-29T09:33:53.054Z,52.90
2018-03-29T09:36:20.560Z,53.00
2018-03-29T09:38:48.799Z,52.90
2018-03-29T09:41:16.337Z,52.90
2018-03-29T09:43:43.815Z,53.00
2018-03-29T09:46:11.331Z,53.00
2018-03-29T09:48:38.839Z,53.30
2018-03-29T09:51:07.082Z,53.60
2018-03-29T09:53:34.568Z,53.60
2018-03-29T09:56:02.057Z,53.50
2018-03-29T09:58:30.286Z,53.40
2018-03-29T10:01:03.366Z,53.30
2018-03-29T10:03:30.847Z,53.00
2018-03-29T10:06:04.295Z,52.90
2018-03-29T10:08:31.778Z,53.00
2018-03-29T10:10:59.271Z,53.20
2018-03-29T10:13:27.559Z,53.20
2018-03-29T10:15:55.798Z,53.10
2018-03-29T10:18:23.339Z,52.90
2018-03-29T10:20:50.842Z,52.60
2018-03-29T10:23:18.352Z,52.20
2018-03-29T10:25:46.623Z,51.30
2018-03-29T10:28:14.102Z,51.30
2018-03-29T10:30:41.607Z,50.60
2018-03-29T10:33:09.131Z,50.20
2018-03-29T10:35:36.621Z,49.30
2018-03-29T10:38:04.890Z,48.40
2018-03-29T10:40:32.424Z,48.40
2018-03-29T10:42:59.913Z,48.70
2018-03-29T10:45:27.441Z,48.20
2018-03-29T10:47:55.711Z,47.90
2018-03-29T10:50:23.243Z,47.90
2018-03-29T10:52:50.735Z,47.60
2018-03-29T10:55:18.220Z,47.40
2018-03-29T10:57:45.741Z,47.00
2018-03-29T11:00:13.364Z,46.50
2018-03-29T11:02:40.858Z,46.50
2018-03-29T11:05:09.087Z,47.40
2018-03-29T11:07:36.566Z,47.40
2018-03-29T11:10:04.059Z,48.00
2018-03-29T11:12:31.696Z,48.80
2018-03-29T11:14:59.195Z,49.40
2018-03-29T11:17:26.720Z,49.10
2018-03-29T11:19:54.219Z,48.10
2018-03-29T11:22:21.706Z,47.00
2018-03-29T11:24:49.211Z,47.10
2018-03-29T11:27:16.696Z,47.80
2018-03-29T11:29:44.230Z,48.50
2018-03-29T11:32:11.724Z,49.20
2018-03-29T11:34:39.243Z,49.90
2018-03-29T11:37:06.722Z,50.50
2018-03-29T11:39:34.210Z,50.90
2018-03-29T11:42:01.699Z,51.30
2018-03-29T11:44:29.939Z,51.60
2018-03-29T11:46:57.426Z,51.60
2018-03-29T11:49:24.925Z,51.60
2018-03-29T11:51:52.422Z,51.80
2018-03-29T11:54:20.679Z,52.30
2018-03-29T11:56:48.949Z,52.40
2018-03-29T11:59:16.486Z,52.40
2018-03-29T12:01:44.011Z,52.40
2018-03-29T12:04:12.260Z,52.20
2018-03-29T12:06:39.727Z,52.10
2018-03-29T12:09:07.995Z,52.00
2018-03-29T12:11:35.480Z,52.00
2018-03-29T12:14:02.967Z,51.80
2018-03-29T12:16:30.479Z,51.50
2018-03-29T12:18:58.724Z,50.80
2018-03-29T12:21:26.194Z,50.80
2018-03-29T12:23:53.675Z,50.80
2018-03-29T12:26:21.946Z,50.00
2018-03-29T12:28:49.427Z,49.90
2018-03-29T12:31:17.010Z,44.30
2018-03-29T12:33:44.500Z,38.10
2018-03-29T12:36:12.776Z,36.90
2018-03-29T12:38:40.288Z,36.80
2018-03-29T12:41:07.779Z,39.10
2018-03-29T12:43:35.271Z,40.40
2018-03-29T12:46:02.765Z,42.40
2018-03-29T12:48:31.019Z,44.50
2018-03-29T12:50:58.500Z,44.50
2018-03-29T12:53:25.989Z,43.00
2018-03-29T12:55:53.491Z,40.50
2018-03-29T12:58:21.038Z,37.90
2018-03-29T13:00:49.307Z,34.70
2018-03-29T13:03:16.825Z,34.60
2018-03-29T13:05:45.077Z,34.90
2018-03-29T13:08:13.364Z,32.60
2018-03-29T13:10:40.855Z,32.50
2018-03-29T13:13:09.122Z,29.60
2018-03-29T13:15:36.609Z,29.60
2018-03-29T13:18:04.885Z,31.30
2018-03-29T13:20:32.379Z,31.40
2018-03-29T13:23:00.627Z,36.60
2018-03-29T13:25:28.099Z,36.50
2018-03-29T13:27:55.620Z,38.70
2018-03-29T13:30:23.128Z,40.60
2018-03-29T13:32:50.610Z,42.30
2018-03-29T13:35:18.101Z,43.90
2018-03-29T13:37:46.348Z,45.50
2018-03-29T13:40:13.823Z,45.50
2018-03-29T13:42:41.316Z,45.60
2018-03-29T13:45:08.802Z,45.50
2018-03-29T13:47:37.063Z,45.20
2018-03-29T13:50:04.559Z,45.20
2018-03-29T13:52:32.848Z,45.90
2018-03-29T13:55:00.334Z,45.90
2018-03-29T13:57:27.873Z,44.70
2018-03-29T13:59:55.357Z,44.90
2018-03-29T14:02:22.843Z,46.00
2018-03-29T14:04:50.342Z,47.10
2018-03-29T14:07:17.824Z,47.40
2018-03-29T14:09:45.307Z,48.20
2018-03-29T14:12:12.794Z,48.50
2018-03-29T14:14:40.290Z,48.80
2018-03-29T14:17:07.787Z,49.10
2018-03-29T14:19:36.114Z,49.30
2018-03-29T14:22:03.630Z,49.60
2018-03-29T14:24:31.905Z,50.30
2018-03-29T14:27:00.170Z,50.50
2018-03-29T14:29:27.654Z,50.40
2018-03-29T14:31:55.157Z,50.50
2018-03-29T14:34:22.698Z,50.40
2018-03-29T14:36:51.013Z,50.60
2018-03-29T14:39:18.538Z,50.60
2018-03-29T14:41:46.026Z,50.60
2018-03-29T14:44:14.277Z,50.80
2018-03-29T14:46:41.770Z,50.60
2018-03-29T14:49:09.264Z,50.30
2018-03-29T14:51:37.499Z,48.90
2018-03-29T14:54:05.070Z,48.80
2018-03-29T14:56:32.554Z,48.40
2018-03-29T14:59:00.048Z,47.40
2018-03-29T15:01:28.307Z,46.40
2018-03-29T15:03:55.780Z,46.40
2018-03-29T15:06:23.285Z,46.70
2018-03-29T15:08:51.535Z,47.20
2018-03-29T15:11:19.030Z,47.00
2018-03-29T15:13:46.540Z,47.60
2018-03-29T15:16:14.781Z,48.40
2018-03-29T15:18:42.346Z,48.40
2018-03-29T15:21:09.841Z,48.50
2018-03-29T15:23:37.321Z,49.00
2018-03-29T15:26:05.579Z,49.70
2018-03-29T15:28:33.156Z,49.60
2018-03-29T15:31:00.670Z,49.80
2018-03-29T15:33:28.138Z,50.00
2018-03-29T15:35:56.390Z,50.40
2018-03-29T15:38:23.878Z,50.30
2018-03-29T15:40:51.382Z,50.60
2018-03-29T15:43:19.666Z,50.70
2018-03-29T15:45:47.152Z,50.70
2018-03-29T15:48:15.409Z,50.90
2018-03-29T15:50:43.730Z,50.90
2018-03-29T15:53:11.163Z,50.90
2018-03-29T15:55:39.472Z,50.80
2018-03-29T15:58:06.976Z,50.80
2018-03-29T16:00:34.523Z,50.60
2018-03-29T16:03:02.135Z,50.70
2018-03-29T16:05:29.590Z,50.70
2018-03-29T16:07:57.081Z,50.70
2018-03-29T16:10:24.597Z,50.60
2018-03-29T16:12:52.102Z,50.70
2018-03-29T16:15:20.371Z,50.80
2018-03-29T16:17:47.867Z,50.70
2018-03-29T16:20:15.393Z,50.70
2018-03-29T16:22:42.891Z,50.80
2018-03-29T16:25:10.366Z,50.80
2018-03-29T16:27:37.857Z,50.80
2018-03-29T16:30:05.331Z,50.70
2018-03-29T16:32:32.819Z,50.70
2018-03-29T16:35:00.313Z,50.40
2018-03-29T16:37:28.569Z,50.20
2018-03-29T16:39:56.056Z,50.20
2018-03-29T16:42:24.399Z,50.20
2018-03-29T16:44:52.694Z,50.20
2018-03-29T16:47:20.230Z,50.30
2018-03-29T16:49:47.716Z,50.30
2018-03-29T16:52:15.309Z,50.40
2018-03-29T16:54:42.827Z,50.40
2018-03-29T16:57:10.337Z,50.60
2018-03-29T16:59:37.809Z,50.70
2018-03-29T17:02:05.299Z,50.70
2018-03-29T17:04:32.783Z,50.80
2018-03-29T17:07:00.313Z,50.90
2018-03-29T17:09:27.824Z,50.90
2018-03-29T17:11:55.331Z,51.10
2018-03-29T17:14:22.866Z,51.20
2018-03-29T17:16:50.383Z,51.40
2018-03-29T17:19:18.631Z,51.60
2018-03-29T17:21:46.888Z,51.30
2018-03-29T17:24:14.425Z,51.80
2018-03-29T17:26:41.929Z,51.90
2018-03-29T17:29:09.780Z,52.10
2018-03-29T17:31:37.293Z,52.10
2018-03-29T17:34:04.861Z,52.30
2018-03-29T17:36:32.420Z,52.60
2018-03-29T17:38:59.917Z,52.90
2018-03-29T17:41:27.406Z,53.60
2018-03-29T17:43:54.884Z,53.10
2018-03-29T17:46:23.134Z,53.50
2018-03-29T17:48:50.726Z,53.50
2018-03-29T17:51:18.203Z,53.60
2018-03-29T17:53:46.459Z,53.90
2018-03-29T17:56:14.005Z,53.90
2018-03-29T17:58:41.573Z,54.00
2018-03-29T18:01:10.038Z,54.20
2018-03-29T18:03:37.605Z,54.20
2018-03-29T18:06:05.866Z,54.40
2018-03-29T18:08:33.356Z,54.30
2018-03-29T18:11:01.640Z,54.70
2018-03-29T18:13:29.132Z,54.70
2018-03-29T18:15:57.415Z,54.80
2018-03-29T18:18:25.686Z,54.80
2018-03-29T18:20:53.181Z,54.80
2018-03-29T18:23:21.447Z,55.00
2018-03-29T18:25:48.919Z,55.00
2018-03-29T18:28:16.430Z,55.10
2018-03-29T18:30:43.949Z,55.20
2018-03-29T18:33:11.413Z,55.30
2018-03-29T18:35:38.911Z,55.90
2018-03-29T18:38:07.164Z,55.40
2018-03-29T18:40:34.670Z,55.40
2018-03-29T18:43:02.963Z,55.50
2018-03-29T18:45:30.455Z,55.40
2018-03-29T18:47:57.987Z,55.50
2018-03-29T18:50:25.490Z,55.70
2018-03-29T18:52:53.007Z,55.70
2018-03-29T18:55:20.494Z,55.80
2018-03-29T18:57:47.986Z,55.80
2018-03-29T19:00:16.245Z,55.80
2018-03-29T19:02:43.732Z,55.80
2018-03-29T19:05:11.275Z,55.80
2018-03-29T19:07:38.765Z,55.90
2018-03-29T19:10:06.289Z,56.00
2018-03-29T19:12:33.834Z,56.00
2018-03-29T19:15:02.114Z,56.10
2018-03-29T19:17:30.393Z,56.10
2018-03-29T19:19:58.651Z,56.00
2018-03-29T19:22:26.204Z,56.00
2018-03-29T19:24:53.703Z,55.90
2018-03-29T19:27:21.183Z,55.80
2018-03-29T19:29:48.676Z,55.80
2018-03-29T19:32:16.947Z,55.80
2018-03-29T19:34:44.447Z,55.70
2018-03-29T19:37:12.700Z,55.60
2018-03-29T19:39:40.191Z,55.60
2018-03-29T19:42:07.687Z,55.60
2018-03-29T19:44:35.197Z,55.50
2018-03-29T19:47:02.678Z,55.40
2018-03-29T19:49:31.650Z,55.20
2018-03-29T19:51:59.154Z,55.20
2018-03-29T19:54:27.392Z,55.70
2018-03-29T19:56:54.906Z,55.20
2018-03-29T19:59:22.411Z,55.00
2018-03-29T20:01:50.684Z,54.90
2018-03-29T20:04:18.181Z,54.90
2018-03-29T20:06:46.450Z,54.90
2018-03-29T20:09:13.938Z,54.90
2018-03-29T20:11:42.235Z,54.70
2018-03-29T20:14:09.776Z,54.70
2018-03-29T20:16:38.090Z,54.50
2018-03-29T20:19:05.725Z,54.40
2018-03-29T20:21:33.282Z,54.40
2018-03-29T20:24:00.767Z,54.30
2018-03-29T20:26:28.277Z,54.20
2018-03-29T20:28:55.802Z,54.30
2018-03-29T20:31:23.279Z,54.20
2018-03-29T20:33:50.789Z,54.10
2018-03-29T20:36:19.089Z,54.10
2018-03-29T20:38:47.347Z,54.10
2018-03-29T20:41:15.884Z,54.00
2018-03-29T20:43:44.326Z,54.50
2018-03-29T20:46:11.823Z,54.00
2018-03-29T20:48:40.237Z,53.90
2018-03-29T20:51:07.750Z,53.90
2018-03-29T20:53:37.526Z,53.80
2018-03-29T20:56:05.098Z,53.70
2018-03-29T20:58:32.633Z,53.70
2018-03-29T21:01:01.125Z,53.80
2018-03-29T21:03:29.519Z,53.70
2018-03-29T21:05:57.778Z,53.70
2018-03-29T21:08:25.267Z,53.60
2018-03-29T21:10:52.758Z,53.60
2018-03-29T21:13:21.040Z,53.60
2018-03-29T21:15:49.304Z,53.50
2018-03-29T21:18:16.867Z,53.50
2018-03-29T21:20:44.364Z,53.60
2018-03-29T21:23:11.879Z,53.60
2018-03-29T21:25:39.383Z,53.50
2018-03-29T21:28:06.887Z,53.40
2018-03-29T21:30:35.141Z,53.30
2018-03-29T21:33:02.663Z,53.20
2018-03-29T21:35:31.152Z,53.20
2018-03-29T21:37:59.515Z,53.40
2018-03-29T21:40:30.823Z,53.40
2018-03-29T21:42:58.318Z,53.30
2018-03-29T21:45:25.850Z,53.20
2018-03-29T21:47:54.100Z,53.20
2018-03-29T21:50:21.603Z,53.10
2018-03-29T21:52:49.919Z,53.10
2018-03-29T21:55:17.522Z,53.10
2018-03-29T21:57:45.329Z,53.00
2018-03-29T22:00:15.656Z,52.90
2018-03-29T22:02:43.962Z,53.00
2018-03-29T22:05:11.580Z,53.00
2018-03-29T22:07:39.527Z,52.90
2018-03-29T22:10:07.788Z,53.00
2018-03-29T22:12:35.264Z,52.90
2018-03-29T22:17:44.654Z,52.80
2018-03-29T22:20:16.487Z,52.80
2018-03-29T22:22:49.109Z,52.70
2018-03-29T22:25:29.339Z,52.70
2018-03-29T22:28:02.128Z,52.70
2018-03-29T22:30:29.667Z,52.70
2018-03-29T22:33:07.956Z,52.60
2018-03-29T22:35:35.643Z,52.60
2018-03-29T22:38:07.523Z,52.60
2018-03-29T22:40:35.577Z,52.60
2018-03-29T22:43:03.595Z,52.50
2018-03-29T22:45:33.609Z,52.50
2018-03-29T22:48:01.106Z,52.60
2018-03-29T22:50:29.390Z,52.40
2018-03-29T22:52:57.102Z,52.40
2018-03-29T22:55:24.595Z,52.30
2018-03-29T22:57:52.994Z,52.40
2018-03-29T23:00:35.006Z,52.20
2018-03-29T23:03:02.485Z,52.20
2018-03-29T23:05:29.994Z,52.20
2018-03-29T23:07:57.499Z,52.20
2018-03-29T23:10:24.998Z,52.10
2018-03-29T23:12:52.476Z,51.90
2018-03-29T23:15:20.751Z,52.00
2018-03-29T23:17:48.296Z,51.80
2018-03-29T23:20:15.795Z,51.90
2018-03-29T23:22:43.318Z,51.90
2018-03-29T23:25:10.830Z,51.90
2018-03-29T23:27:38.315Z,51.90
2018-03-29T23:30:05.826Z,51.80
2018-03-29T23:32:33.334Z,52.40
2018-03-29T23:35:00.993Z,51.70
2018-03-29T23:37:28.590Z,51.70
2018-03-29T23:39:56.188Z,51.60
2018-03-29T23:42:23.675Z,51.50
2018-03-29T23:44:51.935Z,51.50
2018-03-29T23:47:19.443Z,51.40
2018-03-29T23:49:47.077Z,51.50
2018-03-29T23:52:14.634Z,51.50
2018-03-29T23:54:42.118Z,51.40
2018-03-29T23:57:09.674Z,51.40
2018-03-29T23:59:37.199Z,51.40
